Wetterstation Vordersexau
Wetterdaten: Woche 13.11.17 - 19.11.17 (KW46)
Datum Zeit Temp. A. Feuchte A. Luftdruck Regen Wind Richtung Taupunkt Windchill Windben
13.11.2017 00:00 3,4 C 78 % 1006,4 hPa 0,0 l/m 0,0 km/h W -0,1 C 3,4 C 0,0 km/h
13.11.2017 01:00 3,4 C 79 % 1006,8 hPa 0,0 l/m 0,0 km/h W 0,1 C 3,4 C 0,0 km/h
13.11.2017 02:00 3,4 C 78 % 1007,6 hPa 0,0 l/m 0,0 km/h S -0,1 C 3,4 C 0,0 km/h
13.11.2017 03:00 3,3 C 78 % 1008,3 hPa 0,0 l/m 0,0 km/h S-SW -0,2 C 3,3 C 0,0 km/h
13.11.2017 04:00 3,3 C 77 % 1008,9 hPa 0,0 l/m 0,0 km/h W -0,3 C 3,3 C 0,0 km/h
13.11.2017 05:00 3,1 C 76 % 1009,4 hPa 0,5 l/m 0,0 km/h S-SW -0,7 C 3,1 C 0,0 km/h
13.11.2017 06:00 2,9 C 75 % 1010,5 hPa 0,5 l/m 0,0 km/h SO -1,1 C 2,9 C 0,0 km/h
13.11.2017 07:00 2,8 C 75 % 1011,4 hPa 0,5 l/m 0,0 km/h SO -1,2 C 2,8 C 0,0 km/h
13.11.2017 08:00 2,9 C 74 % 1012,0 hPa 0,0 l/m 0,0 km/h SO -1,3 C 2,9 C 0,0 km/h
13.11.2017 09:00 3,5 C 74 % 1012,6 hPa 0,0 l/m 0,0 km/h SO -0,7 C 3,5 C 0,0 km/h
13.11.2017 10:00 4,7 C 74 % 1013,2 hPa 0,0 l/m 0,0 km/h O 0,5 C 4,7 C 0,0 km/h
13.11.2017 11:00 8,0 C 73 % 1013,5 hPa 0,0 l/m 0,0 km/h O 3,5 C 8,0 C 0,0 km/h
13.11.2017 12:00 7,8 C 85 % 1013,7 hPa 0,0 l/m 0,0 km/h N-NO 5,4 C 7,8 C 0,0 km/h
13.11.2017 13:00 6,5 C 85 % 1014,4 hPa 0,0 l/m 0,6 km/h N 4,2 C 6,5 C 0,4 km/h
13.11.2017 14:00 11,6 C 72 % 1014,6 hPa 0,0 l/m 0,0 km/h N 6,7 C 11,6 C 0,0 km/h
13.11.2017 15:00 11,8 C 70 % 1015,6 hPa 0,0 l/m 0,0 km/h N-NO 6,5 C 11,8 C 0,0 km/h
13.11.2017 16:00 5,5 C 79 % 1015,7 hPa 0,0 l/m 0,0 km/h N-NO 2,2 C 5,5 C 0,0 km/h
13.11.2017 17:00 3,7 C 85 % 1016,7 hPa 0,0 l/m 0,0 km/h N-NO 1,4 C 3,7 C 0,0 km/h
13.11.2017 18:00 3,4 C 85 % 1017,3 hPa 0,0 l/m 0,0 km/h N-NO 1,1 C 3,4 C 0,0 km/h
13.11.2017 19:00 3,8 C 85 % 1018,1 hPa 0,0 l/m 0,0 km/h O-SO 1,5 C 3,8 C 0,0 km/h
13.11.2017 20:00 3,8 C 84 % 1018,7 hPa 0,0 l/m 0,0 km/h O-SO 1,4 C 3,8 C 0,0 km/h
13.11.2017 21:00 3,9 C 83 % 1019,2 hPa 0,0 l/m 0,0 km/h N-NO 1,3 C 3,9 C 0,0 km/h
13.11.2017 22:00 3,6 C 83 % 1019,2 hPa 0,0 l/m 0,0 km/h N-NO 1,0 C 3,6 C 0,0 km/h
13.11.2017 23:00 3,6 C 82 % 1019,5 hPa 0,0 l/m 0,0 km/h O-SO 0,8 C 3,6 C 0,0 km/h
14.11.2017 00:00 3,0 C 81 % 1019,7 hPa 0,0 l/m 0,0 km/h O-SO 0,1 C 3,0 C 0,0 km/h
14.11.2017 01:00 1,8 C 82 % 1020,1 hPa 0,0 l/m 0,0 km/h O-SO -0,9 C 1,8 C 0,0 km/h
14.11.2017 02:00 0,2 C 82 % 1020,5 hPa 0,0 l/m 0,0 km/h O-SO -2,5 C 0,2 C 0,0 km/h
14.11.2017 03:00 -0,4 C 81 % 1020,9 hPa 0,0 l/m 0,0 km/h O-SO -3,3 C -0,4 C 0,0 km/h
14.11.2017 04:00 -0,4 C 80 % 1021,0 hPa 0,0 l/m 0,0 km/h NO -3,4 C -0,4 C 0,0 km/h
14.11.2017 05:00 -1,2 C 80 % 1021,3 hPa 0,0 l/m 0,0 km/h NO -4,2 C -1,2 C 0,0 km/h
14.11.2017 06:00 -1,5 C 80 % 1021,8 hPa 0,0 l/m 0,0 km/h NO -4,5 C -1,5 C 0,0 km/h
14.11.2017 07:00 -1,5 C 80 % 1022,4 hPa 0,0 l/m 0,0 km/h O-NO -4,5 C -1,5 C 0,0 km/h
14.11.2017 08:00 3,3 C 72 % 1022,9 hPa 0,0 l/m 0,0 km/h N -1,3 C 3,3 C 0,0 km/h
14.11.2017 09:00 5,8 C 85 % 1023,6 hPa 0,0 l/m 0,0 km/h W 3,5 C 5,8 C 0,0 km/h
14.11.2017 10:00 9,1 C 79 % 1023,6 hPa 0,0 l/m 0,0 km/h O-SO 5,7 C 9,1 C 0,0 km/h
14.11.2017 11:00 11,0 C 72 % 1022,9 hPa 0,0 l/m 0,0 km/h W 6,2 C 11,0 C 0,0 km/h
14.11.2017 12:00 11,1 C 67 % 1022,6 hPa 0,0 l/m 0,0 km/h N-NW 5,2 C 11,1 C 0,0 km/h
14.11.2017 13:00 11,9 C 65 % 1022,3 hPa 0,0 l/m 0,0 km/h W 5,5 C 11,9 C 0,0 km/h
14.11.2017 14:00 13,5 C 61 % 1022,2 hPa 0,0 l/m 2,6 km/h SO 6,1 C 13,5 C 1,4 km/h
14.11.2017 15:00 15,0 C 54 % 1022,2 hPa 0,0 l/m 0,0 km/h O-SO 5,8 C 15,0 C 0,0 km/h
14.11.2017 16:00 7,2 C 67 % 1022,8 hPa 0,0 l/m 0,0 km/h O-SO 1,5 C 7,2 C 0,0 km/h
14.11.2017 17:00 2,5 C 81 % 1023,5 hPa 0,0 l/m 0,0 km/h O-SO -0,4 C 2,5 C 0,0 km/h
14.11.2017 18:00 1,6 C 84 % 1023,8 hPa 0,0 l/m 1,9 km/h O-SO -0,8 C 1,6 C 1,1 km/h
14.11.2017 19:00 0,5 C 85 % 1024,0 hPa 0,0 l/m 0,0 km/h SO -1,7 C 0,5 C 0,0 km/h
14.11.2017 20:00 -0,1 C 85 % 1024,5 hPa 0,0 l/m 0,0 km/h O-SO -2,3 C -0,1 C 0,0 km/h
14.11.2017 21:00 -0,5 C 85 % 1024,5 hPa 0,0 l/m 0,0 km/h O-SO -2,7 C -0,5 C 0,0 km/h
14.11.2017 22:00 -1,3 C 85 % 1024,3 hPa 0,0 l/m 0,0 km/h SO -3,5 C -1,3 C 0,0 km/h
14.11.2017 23:00 -1,0 C 84 % 1024,2 hPa 0,0 l/m 0,0 km/h O-SO -3,4 C -1,0 C 0,0 km/h
15.11.2017 00:00 -1,7 C 84 % 1024,1 hPa 0,0 l/m 0,0 km/h O-SO -4,0 C -1,7 C 0,0 km/h
15.11.2017 01:00 -2,1 C 84 % 1023,8 hPa 0,0 l/m 0,0 km/h O-SO -4,4 C -2,1 C 0,0 km/h
15.11.2017 02:00 -2,1 C 83 % 1023,6 hPa 0,0 l/m 0,0 km/h O-SO -4,6 C -2,1 C 0,0 km/h
15.11.2017 03:00 -2,4 C 84 % 1023,4 hPa 0,0 l/m 0,0 km/h O-SO -4,7 C -2,4 C 0,0 km/h
15.11.2017 04:00 -2,9 C 84 % 1023,5 hPa 0,0 l/m 0,0 km/h O-SO -5,2 C -2,9 C 0,0 km/h
15.11.2017 05:00 -3,1 C 84 % 1023,3 hPa 0,0 l/m 0,0 km/h O -5,4 C -3,1 C 0,0 km/h
15.11.2017 06:00 -2,5 C 82 % 1023,7 hPa 0,0 l/m 0,0 km/h O -5,1 C -2,5 C 0,0 km/h
15.11.2017 07:00 -2,4 C 82 % 1024,0 hPa 0,0 l/m 0,0 km/h O -5,0 C -2,4 C 0,0 km/h
15.11.2017 08:00 -1,6 C 81 % 1024,4 hPa 0,0 l/m 0,0 km/h O -4,4 C -1,6 C 0,0 km/h
15.11.2017 09:00 -1,1 C 81 % 1024,4 hPa 0,0 l/m 0,0 km/h NO -3,9 C -1,1 C 0,0 km/h
15.11.2017 10:00 -0,5 C 80 % 1024,2 hPa 0,0 l/m 0,0 km/h W-NW -3,5 C -0,5 C 0,0 km/h
15.11.2017 11:00 0,3 C 79 % 1023,6 hPa 0,0 l/m 0,0 km/h W-SW -2,9 C 0,3 C 0,0 km/h
15.11.2017 12:00 0,5 C 78 % 1023,2 hPa 0,0 l/m 0,0 km/h W -2,9 C 0,5 C 0,0 km/h
15.11.2017 13:00 0,8 C 78 % 1022,3 hPa 0,0 l/m 0,0 km/h S -2,6 C 0,8 C 0,0 km/h
15.11.2017 14:00 1,3 C 79 % 1022,2 hPa 0,0 l/m 0,0 km/h S-SO -1,9 C 1,3 C 0,0 km/h
15.11.2017 15:00 1,3 C 80 % 1022,2 hPa 0,0 l/m 0,0 km/h NO -1,8 C 1,3 C 0,0 km/h
15.11.2017 16:00 1,1 C 80 % 1022,2 hPa 0,0 l/m 0,0 km/h NO -2,0 C 1,1 C 0,0 km/h
15.11.2017 17:00 0,9 C 80 % 1022,1 hPa 0,0 l/m 0,0 km/h O-SO -2,2 C 0,9 C 0,0 km/h
15.11.2017 18:00 0,7 C 79 % 1022,5 hPa 0,0 l/m 0,0 km/h S-SO -2,5 C 0,7 C 0,0 km/h
15.11.2017 19:00 0,4 C 78 % 1022,5 hPa 0,0 l/m 0,0 km/h SO -3,0 C 0,4 C 0,0 km/h
15.11.2017 20:00 0,2 C 77 % 1022,5 hPa 0,0 l/m 0,0 km/h SO -3,3 C 0,2 C 0,0 km/h
15.11.2017 21:00 0,3 C 76 % 1022,2 hPa 0,0 l/m 0,0 km/h SO -3,4 C 0,3 C 0,0 km/h
15.11.2017 22:00 0,1 C 75 % 1022,2 hPa 0,0 l/m 0,0 km/h SO -3,8 C 0,1 C 0,0 km/h
15.11.2017 23:00 0,1 C 75 % 1022,3 hPa 0,0 l/m 0,0 km/h NO -3,8 C 0,1 C 0,0 km/h
16.11.2017 00:00 -0,1 C 74 % 1021,9 hPa 0,0 l/m 0,0 km/h NO -4,2 C -0,1 C 0,0 km/h
16.11.2017 01:00 -0,1 C 74 % 1021,6 hPa 0,0 l/m 0,0 km/h O-NO -4,2 C -0,1 C 0,0 km/h
16.11.2017 02:00 -0,1 C 74 % 1021,6 hPa 0,0 l/m 0,0 km/h O-NO -4,2 C -0,1 C 0,0 km/h
16.11.2017 03:00 -0,1 C 74 % 1021,3 hPa 0,0 l/m 0,0 km/h O-NO -4,2 C -0,1 C 0,0 km/h
16.11.2017 04:00 -0,1 C 74 % 1021,5 hPa 0,0 l/m 0,0 km/h O-NO -4,2 C -0,1 C 0,0 km/h
16.11.2017 05:00 0,1 C 74 % 1021,4 hPa 0,0 l/m 0,0 km/h SO -4,0 C 0,1 C 0,0 km/h
16.11.2017 06:00 -0,1 C 74 % 1021,4 hPa 0,0 l/m 0,0 km/h NO -4,2 C -0,1 C 0,0 km/h
16.11.2017 07:00 0,1 C 74 % 1021,8 hPa 0,0 l/m 0,0 km/h O-SO -4,0 C 0,1 C 0,0 km/h
16.11.2017 08:00 0,4 C 74 % 1022,2 hPa 0,0 l/m 0,0 km/h NO -3,7 C 0,4 C 0,0 km/h
16.11.2017 09:00 0,8 C 75 % 1022,3 hPa 0,0 l/m 0,0 km/h NO -3,1 C 0,8 C 0,0 km/h
16.11.2017 10:00 1,3 C 77 % 1022,7 hPa 0,0 l/m 0,0 km/h N-NO -2,3 C 1,3 C 0,0 km/h
16.11.2017 11:00 1,8 C 80 % 1022,2 hPa 0,0 l/m 0,0 km/h N -1,3 C 1,8 C 0,0 km/h
16.11.2017 12:00 1,9 C 84 % 1022,3 hPa 0,0 l/m 0,0 km/h S -0,5 C 1,9 C 0,0 km/h
16.11.2017 13:00 2,0 C 85 % 1022,1 hPa 0,0 l/m 0,0 km/h S-SW -0,3 C 2,0 C 0,0 km/h
16.11.2017 14:00 2,8 C 86 % 1021,9 hPa 0,0 l/m 0,0 km/h SW 0,7 C 2,8 C 0,0 km/h
16.11.2017 15:00 2,3 C 86 % 1022,0 hPa 0,0 l/m 0,0 km/h SW 0,2 C 2,3 C 0,0 km/h
16.11.2017 16:00 1,6 C 86 % 1022,3 hPa 0,0 l/m 0,0 km/h SW -0,5 C 1,6 C 0,0 km/h
16.11.2017 17:00 1,4 C 86 % 1022,5 hPa 0,0 l/m 0,0 km/h SW -0,7 C 1,4 C 0,0 km/h
16.11.2017 18:00 1,5 C 86 % 1022,5 hPa 0,0 l/m 0,0 km/h S -0,6 C 1,5 C 0,0 km/h
16.11.2017 19:00 1,5 C 86 % 1022,9 hPa 0,0 l/m 0,0 km/h S -0,6 C 1,5 C 0,0 km/h
16.11.2017 20:00 1,4 C 86 % 1023,4 hPa 0,0 l/m 0,0 km/h O-SO -0,7 C 1,4 C 0,0 km/h
16.11.2017 21:00 1,4 C 86 % 1023,2 hPa 0,0 l/m 0,0 km/h O-SO -0,7 C 1,4 C 0,0 km/h
16.11.2017 22:00 1,1 C 86 % 1023,5 hPa 0,0 l/m 0,0 km/h O-SO -1,0 C 1,1 C 0,0 km/h
16.11.2017 23:00 1,0 C 86 % 1023,4 hPa 0,0 l/m 0,0 km/h O-SO -1,1 C 1,0 C 0,0 km/h
17.11.2017 00:00 0,4 C 86 % 1023,4 hPa 0,0 l/m 0,0 km/h O-SO -1,7 C 0,4 C 0,0 km/h
17.11.2017 01:00 -0,1 C 86 % 1023,5 hPa 0,0 l/m 0,0 km/h O-SO -2,2 C -0,1 C 0,0 km/h
17.11.2017 02:00 0,2 C 85 % 1023,3 hPa 0,0 l/m 0,0 km/h O-SO -2,0 C 0,2 C 0,0 km/h
17.11.2017 03:00 0,3 C 85 % 1023,2 hPa 0,0 l/m 0,0 km/h O-SO -1,9 C 0,3 C 0,0 km/h
17.11.2017 04:00 0,5 C 85 % 1023,4 hPa 0,0 l/m 0,0 km/h O-SO -1,7 C 0,5 C 0,0 km/h
17.11.2017 05:00 0,9 C 84 % 1023,3 hPa 0,0 l/m 0,0 km/h O-SO -1,5 C 0,9 C 0,0 km/h
17.11.2017 06:00 1,2 C 84 % 1023,6 hPa 0,0 l/m 0,0 km/h O-SO -1,2 C 1,2 C 0,0 km/h
17.11.2017 07:00 1,6 C 84 % 1023,7 hPa 0,0 l/m 0,0 km/h O -0,8 C 1,6 C 0,0 km/h
17.11.2017 08:00 2,2 C 85 % 1024,0 hPa 0,0 l/m 0,0 km/h O -0,1 C 2,2 C 0,0 km/h
17.11.2017 09:00 3,2 C 85 % 1023,7 hPa 0,0 l/m 0,0 km/h O 0,9 C 3,2 C 0,0 km/h
17.11.2017 10:00 4,7 C 85 % 1023,8 hPa 0,0 l/m 0,0 km/h O 2,4 C 4,7 C 0,0 km/h
17.11.2017 11:00 5,8 C 83 % 1023,5 hPa 0,0 l/m 0,0 km/h NW 3,1 C 5,8 C 0,0 km/h
17.11.2017 12:00 6,6 C 80 % 1023,3 hPa 0,0 l/m 0,0 km/h W-SW 3,4 C 6,6 C 0,0 km/h
17.11.2017 13:00 10,4 C 72 % 1022,6 hPa 0,0 l/m 0,0 km/h W-SW 5,6 C 10,4 C 0,0 km/h
17.11.2017 14:00 8,8 C 74 % 1022,3 hPa 0,0 l/m 0,0 km/h W-NW 4,4 C 8,8 C 0,0 km/h
17.11.2017 15:00 6,9 C 77 % 1022,3 hPa 0,5 l/m 0,0 km/h W 3,2 C 6,9 C 0,0 km/h
17.11.2017 16:00 4,8 C 84 % 1022,8 hPa 0,0 l/m 0,0 km/h W 2,3 C 4,8 C 0,0 km/h
17.11.2017 17:00 4,3 C 85 % 1022,7 hPa 0,0 l/m 0,0 km/h W 2,0 C 4,3 C 0,0 km/h
17.11.2017 18:00 4,1 C 85 % 1022,4 hPa 0,0 l/m 0,0 km/h W 1,8 C 4,1 C 0,0 km/h
17.11.2017 19:00 4,1 C 85 % 1022,5 hPa 0,0 l/m 0,0 km/h W 1,8 C 4,1 C 0,0 km/h
17.11.2017 20:00 4,1 C 85 % 1022,7 hPa 0,0 l/m 0,0 km/h W 1,8 C 4,1 C 0,0 km/h
17.11.2017 21:00 4,1 C 85 % 1022,7 hPa 0,0 l/m 0,0 km/h W 1,8 C 4,1 C 0,0 km/h
17.11.2017 22:00 4,1 C 84 % 1022,4 hPa 0,0 l/m 0,0 km/h W 1,6 C 4,1 C 0,0 km/h
17.11.2017 23:00 4,2 C 84 % 1022,6 hPa 0,0 l/m 0,0 km/h W 1,7 C 4,2 C 0,0 km/h
18.11.2017 00:00 4,2 C 83 % 1021,7 hPa 0,0 l/m 0,0 km/h S-SW 1,6 C 4,2 C 0,0 km/h
18.11.2017 01:00 4,3 C 82 % 1021,9 hPa 0,0 l/m 0,0 km/h S-SW 1,5 C 4,3 C 0,0 km/h
18.11.2017 02:00 4,3 C 82 % 1021,8 hPa 0,0 l/m 0,0 km/h S-SW 1,5 C 4,3 C 0,0 km/h
18.11.2017 03:00 4,3 C 82 % 1021,8 hPa 0,0 l/m 0,0 km/h S-SW 1,5 C 4,3 C 0,0 km/h
18.11.2017 04:00 4,3 C 82 % 1021,8 hPa 0,0 l/m 0,0 km/h S-SW 1,5 C 4,3 C 0,0 km/h
18.11.2017 05:00 4,3 C 81 % 1021,4 hPa 0,0 l/m 0,0 km/h S-SW 1,3 C 4,3 C 0,0 km/h
18.11.2017 06:00 4,4 C 80 % 1021,6 hPa 0,0 l/m 0,0 km/h S-SW 1,3 C 4,4 C 0,0 km/h
18.11.2017 07:00 4,4 C 80 % 1021,6 hPa 0,0 l/m 0,0 km/h S-SW 1,3 C 4,4 C 0,0 km/h
18.11.2017 08:00 4,6 C 79 % 1021,6 hPa 0,0 l/m 0,0 km/h S-SW 1,3 C 4,6 C 0,0 km/h
18.11.2017 09:00 5,3 C 78 % 1021,8 hPa 0,0 l/m 0,0 km/h S-SW 1,8 C 5,3 C 0,0 km/h
18.11.2017 10:00 5,6 C 80 % 1021,8 hPa 0,0 l/m 0,0 km/h S 2,4 C 5,6 C 0,0 km/h
18.11.2017 11:00 6,2 C 83 % 1021,7 hPa 0,0 l/m 0,0 km/h S 3,5 C 6,2 C 0,0 km/h
18.11.2017 12:00 7,3 C 85 % 1020,9 hPa 0,0 l/m 0,0 km/h W-SW 4,9 C 7,3 C 0,0 km/h
18.11.2017 13:00 6,9 C 82 % 1020,7 hPa 0,0 l/m 20,7 km/h W 4,0 C -1,0 C 11,5 km/h
18.11.2017 14:00 6,4 C 82 % 1020,4 hPa 0,0 l/m 9,7 km/h SW 3,6 C 3,8 C 5,4 km/h
18.11.2017 15:00 7,5 C 73 % 1020,1 hPa 0,0 l/m 22,7 km/h SW 3,0 C -0,9 C 12,6 km/h
18.11.2017 16:00 5,1 C 78 % 1020,3 hPa 0,0 l/m 22,0 km/h S 1,6 C -3,8 C 12,2 km/h
18.11.2017 17:00 5,1 C 78 % 1020,3 hPa 0,0 l/m 8,4 km/h W 1,6 C 3,4 C 4,7 km/h
18.11.2017 18:00 4,7 C 79 % 1020,7 hPa 0,0 l/m 0,0 km/h SW 1,4 C 4,7 C 0,0 km/h
18.11.2017 19:00 4,2 C 79 % 1020,3 hPa 0,0 l/m 9,7 km/h SW 0,9 C 1,4 C 5,4 km/h
18.11.2017 20:00 4,1 C 80 % 1020,4 hPa 0,0 l/m 0,0 km/h W-SW 1,0 C 4,1 C 0,0 km/h
18.11.2017 21:00 4,1 C 80 % 1019,8 hPa 0,0 l/m 0,0 km/h W-SW 1,0 C 4,1 C 0,0 km/h
18.11.2017 22:00 4,5 C 80 % 1019,4 hPa 0,0 l/m 22,0 km/h SW 1,4 C -4,6 C 12,2 km/h
18.11.2017 23:00 4,1 C 82 % 1018,7 hPa 0,0 l/m 19,4 km/h S-SW 1,3 C -4,1 C 10,8 km/h
19.11.2017 00:00 3,0 C 85 % 1018,5 hPa 0,5 l/m 0,0 km/h S-SW 0,7 C 3,0 C 0,0 km/h
19.11.2017 01:00 2,8 C 85 % 1018,0 hPa 0,5 l/m 0,0 km/h S-SW 0,5 C 2,8 C 0,0 km/h
19.11.2017 02:00 2,6 C 85 % 1017,2 hPa 0,5 l/m 1,3 km/h W-SW 0,3 C 2,6 C 0,7 km/h
19.11.2017 03:00 2,8 C 84 % 1016,6 hPa 1,6 l/m 11,7 km/h W-SW 0,4 C -1,6 C 6,5 km/h
19.11.2017 04:00 2,9 C 84 % 1016,7 hPa 0,5 l/m 1,9 km/h S 0,5 C 2,9 C 1,1 km/h
19.11.2017 05:00 3,1 C 83 % 1015,9 hPa 1,0 l/m 4,5 km/h W-SW 0,5 C 3,1 C 2,5 km/h
19.11.2017 06:00 3,3 C 84 % 1016,1 hPa 0,0 l/m 14,3 km/h W 0,9 C -2,6 C 7,9 km/h
19.11.2017 07:00 3,7 C 85 % 1016,4 hPa 0,0 l/m 21,4 km/h W-SW 1,4 C -5,4 C 11,9 km/h
19.11.2017 08:00 3,8 C 85 % 1017,1 hPa 0,0 l/m 9,7 km/h S-SW 1,5 C 1,0 C 5,4 km/h
19.11.2017 09:00 4,4 C 85 % 1017,6 hPa 0,0 l/m 0,0 km/h W 2,1 C 4,4 C 0,0 km/h
19.11.2017 10:00 5,8 C 85 % 1018,0 hPa 0,0 l/m 0,0 km/h W-NW 3,5 C 5,8 C 0,0 km/h
19.11.2017 11:00 6,9 C 85 % 1018,2 hPa 0,0 l/m 0,0 km/h W-SW 4,6 C 6,9 C 0,0 km/h
19.11.2017 12:00 8,8 C 73 % 1018,2 hPa 0,0 l/m 23,3 km/h W 4,2 C 0,7 C 13,0 km/h
19.11.2017 13:00 9,3 C 68 % 1018,2 hPa 0,0 l/m 0,0 km/h W-SW 3,7 C 9,3 C 0,0 km/h
19.11.2017 14:00 12,1 C 59 % 1018,2 hPa 0,0 l/m 14,9 km/h W 4,3 C 7,7 C 8,3 km/h
19.11.2017 15:00 11,2 C 56 % 1018,6 hPa 0,0 l/m 0,0 km/h W-SW 2,8 C 11,2 C 0,0 km/h
19.11.2017 16:00 5,2 C 72 % 1019,0 hPa 0,0 l/m 0,0 km/h W-SW 0,6 C 5,2 C 0,0 km/h
19.11.2017 17:00 4,3 C 79 % 1019,9 hPa 0,0 l/m 0,0 km/h NW 1,0 C 4,3 C 0,0 km/h
19.11.2017 18:00 4,2 C 82 % 1020,2 hPa 0,0 l/m 0,0 km/h S 1,4 C 4,2 C 0,0 km/h
19.11.2017 19:00 4,1 C 84 % 1020,9 hPa 0,0 l/m 0,0 km/h W 1,6 C 4,1 C 0,0 km/h
19.11.2017 20:00 3,9 C 84 % 1021,5 hPa 0,0 l/m 0,0 km/h W 1,4 C 3,9 C 0,0 km/h
19.11.2017 21:00 1,6 C 84 % 1021,8 hPa 0,0 l/m 0,0 km/h W-NW -0,8 C 1,6 C 0,0 km/h
19.11.2017 22:00 0,9 C 85 % 1022,1 hPa 0,0 l/m 0,0 km/h W-NW -1,3 C 0,9 C 0,0 km/h
19.11.2017 23:00 -0,6 C 86 % 1022,2 hPa 0,0 l/m 0,0 km/h W-NW -2,6 C -0,6 C 0,0 km/h
Min-Datum _ 15.11.17 14.11.17 13.11.17 - 13.11.17 - 15.11.17 19.11.17 13.11.17
_ Min-Zeit 05:53 15:53 00:53 - 00:53 - 05:53 07:53 00:53
Minimum _ -3,1 C 54 % 1006,4 hPa - 0,0 km/h - -5,4 C -5,4 C 0,0 km/h
Max-Datum _ 14.11.17 16.11.17 14.11.17 19.11.17 19.11.17 - 13.11.17 14.11.17 19.11.17
_ Max-Zeit 15:53 14:53 20:53 03:53 12:53 - 14:53 15:53 12:53
Maximum _ 15,0 C 86 % 1024,5 hPa 1,6 l/m 23,3 km/h
W
- 6,7 C 15,0 C 13,0 km/h
W
Durchschnitt _ 3,2 C 80 % 1020,6 hPa #6,7 l/m 1,4 km/h O-SO 0,0 C 2,7 C 0,8 km/h
www.sexauwetter.de